Holtsville, NY

3:25 PM EDT on August 31, 2015 (GMT -0400)
Mews Ct | | Change Station
CLOSE
Current Station
Personal Weather Station
Location: Holtsville, NY
Elevation: 89 ft
Nearby Weather Stations

Elev 89 ft 40.80 °N, 73.04 °W | Updated 18 seconds ago

Overcast
Overcast
88.0 °F
Feels Like 93 °F
N
0.0
Wind Variable Wind from West
Gusts 0.0 mph

Today
High -- | Low -- °F
--% Chance of Precip.
Yesterday
High -- | Low -- °F
Precip. -- in
6:17 AM 7:26 PM
Waning Gibbous, 94% visible
Pressure 29.95 in
Visibility 10.0 miles
Clouds Few 5500 ft
Scattered Clouds 10000 ft
Overcast 24000 ft
Heat Index 93 °F
Dew Point 70 °F
Humidity 56%
Rainfall in
Snow Depth Not available.
UV 2.0 out of 12
Pollen 10.00 out of 12
Air Quality Not available.
Flu Activity Not available.
METAR KISP 311856Z 27010KT 10SM FEW055 SCT100 OVC240 32/17 A2995 RMK AO2 SLP140 T03220172
Pressure 29.95 in
Visibility 10.0 miles
Clouds Few 5500 ft
Scattered Clouds 10000 ft
Overcast 24000 ft
Heat Index 93 °F
Dew Point 70 °F
Humidity 56%
Rainfall in
Snow Depth Not available.
UV 2.0 out of 12
Pollen 10.00 out of 12
Air Quality Not available.
Flu Activity Not available.
METAR KISP 311856Z 27010KT 10SM FEW055 SCT100 OVC240 32/17 A2995 RMK AO2 SLP140 T03220172

10-Day Weather Forecast

×

Almanac

Astronomy

Aug. 31, 2015 Rise Set
Actual Time
Civil Twilight
Nautical Twilight
Astronomical Twilight
Moon
Length of Visible Light
Length of Day
Tomorrow will be .
, % of the Moon is Illuminated

Today's Extremes

State Highs State Lows

Community

WunderPhotos

Upload Photos

1,851,341 photos uploaded!

WunderBlogs® & News

Nearby

Air Quality

  Air Quality AQ Index Pollutant
Not available.

Snow Depth

Station Depth Elevation

Earthquake Activity

City Distance Mag. Time & Date
Minimum magnitude displayed is 2.5.

Coastal Water Temperatures

Place Temperature

Stations

Nearby Weather Stations

Station Location Temp. Windchill Dew Point Humidity Wind Precip. Elev Updated Type